sensor_id;sensor_type;location;lat;lon;timestamp;P1;durP1;ratioP1;P2;durP2;ratioP2
48975;SDS011;34791;52.752;8.346;2024-01-25T00:02:08;22.23;;;2.93;;
48975;SDS011;34791;52.752;8.346;2024-01-25T00:04:34;23.73;;;3.70;;
48975;SDS011;34791;52.752;8.346;2024-01-25T00:06:59;13.33;;;3.13;;
48975;SDS011;34791;52.752;8.346;2024-01-25T00:09:24;27.13;;;2.90;;
48975;SDS011;34791;52.752;8.346;2024-01-25T00:11:49;28.63;;;3.80;;
48975;SDS011;34791;52.752;8.346;2024-01-25T00:14:15;19.03;;;3.10;;
48975;SDS011;34791;52.752;8.346;2024-01-25T00:16:40;20.30;;;2.97;;
48975;SDS011;34791;52.752;8.346;2024-01-25T00:19:06;24.03;;;3.00;;
48975;SDS011;34791;52.752;8.346;2024-01-25T00:21:31;23.63;;;3.23;;
48975;SDS011;34791;52.752;8.346;2024-01-25T00:23:56;14.70;;;3.10;;
48975;SDS011;34791;52.752;8.346;2024-01-25T00:26:21;16.80;;;2.73;;
48975;SDS011;34791;52.752;8.346;2024-01-25T00:28:47;21.47;;;3.97;;
48975;SDS011;34791;52.752;8.346;2024-01-25T00:31:12;24.47;;;3.63;;
48975;SDS011;34791;52.752;8.346;2024-01-25T00:33:37;28.50;;;3.27;;
48975;SDS011;34791;52.752;8.346;2024-01-25T00:36:02;22.03;;;2.73;;
48975;SDS011;34791;52.752;8.346;2024-01-25T00:38:28;18.97;;;2.77;;
48975;SDS011;34791;52.752;8.346;2024-01-25T00:40:53;22.50;;;2.70;;
48975;SDS011;34791;52.752;8.346;2024-01-25T00:43:19;17.47;;;2.10;;
48975;SDS011;34791;52.752;8.346;2024-01-25T00:45:44;20.73;;;3.63;;
48975;SDS011;34791;52.752;8.346;2024-01-25T00:48:10;17.50;;;2.80;;
48975;SDS011;34791;52.752;8.346;2024-01-25T00:50:37;20.90;;;3.27;;
48975;SDS011;34791;52.752;8.346;2024-01-25T00:53:02;21.80;;;3.10;;
48975;SDS011;34791;52.752;8.346;2024-01-25T00:55:28;23.10;;;3.40;;
48975;SDS011;34791;52.752;8.346;2024-01-25T00:57:53;22.47;;;3.30;;
48975;SDS011;34791;52.752;8.346;2024-01-25T01:00:19;27.80;;;3.60;;
48975;SDS011;34791;52.752;8.346;2024-01-25T01:02:45;23.93;;;3.20;;
48975;SDS011;34791;52.752;8.346;2024-01-25T01:05:11;25.60;;;3.93;;
48975;SDS011;34791;52.752;8.346;2024-01-25T01:07:36;18.27;;;2.87;;
48975;SDS011;34791;52.752;8.346;2024-01-25T01:10:02;25.77;;;3.63;;
48975;SDS011;34791;52.752;8.346;2024-01-25T01:12:28;25.47;;;3.57;;
48975;SDS011;34791;52.752;8.346;2024-01-25T01:14:53;22.37;;;3.13;;
48975;SDS011;34791;52.752;8.346;2024-01-25T01:17:18;19.23;;;3.07;;
48975;SDS011;34791;52.752;8.346;2024-01-25T01:19:44;16.60;;;3.23;;
48975;SDS011;34791;52.752;8.346;2024-01-25T01:22:09;29.07;;;3.77;;
48975;SDS011;34791;52.752;8.346;2024-01-25T01:24:34;20.03;;;3.07;;
48975;SDS011;34791;52.752;8.346;2024-01-25T01:26:59;27.57;;;3.30;;
48975;SDS011;34791;52.752;8.346;2024-01-25T01:29:25;25.20;;;3.33;;
48975;SDS011;34791;52.752;8.346;2024-01-25T01:31:50;17.33;;;2.40;;
48975;SDS011;34791;52.752;8.346;2024-01-25T01:34:15;24.30;;;3.10;;
48975;SDS011;34791;52.752;8.346;2024-01-25T01:36:42;24.23;;;3.10;;
48975;SDS011;34791;52.752;8.346;2024-01-25T01:39:07;24.20;;;2.73;;
48975;SDS011;34791;52.752;8.346;2024-01-25T01:41:33;26.67;;;2.83;;
48975;SDS011;34791;52.752;8.346;2024-01-25T01:43:58;24.27;;;3.83;;
48975;SDS011;34791;52.752;8.346;2024-01-25T01:46:33;21.23;;;3.07;;
48975;SDS011;34791;52.752;8.346;2024-01-25T01:48:59;27.97;;;2.80;;
48975;SDS011;34791;52.752;8.346;2024-01-25T01:51:25;29.03;;;3.63;;
48975;SDS011;34791;52.752;8.346;2024-01-25T01:53:50;25.30;;;3.53;;
48975;SDS011;34791;52.752;8.346;2024-01-25T01:56:16;24.47;;;3.77;;
48975;SDS011;34791;52.752;8.346;2024-01-25T01:58:41;18.17;;;3.23;;
48975;SDS011;34791;52.752;8.346;2024-01-25T02:01:07;20.90;;;2.87;;
48975;SDS011;34791;52.752;8.346;2024-01-25T02:03:32;23.40;;;3.40;;
48975;SDS011;34791;52.752;8.346;2024-01-25T02:05:58;32.30;;;3.80;;
48975;SDS011;34791;52.752;8.346;2024-01-25T02:08:28;20.17;;;3.53;;
48975;SDS011;34791;52.752;8.346;2024-01-25T02:10:53;21.10;;;3.13;;
48975;SDS011;34791;52.752;8.346;2024-01-25T02:13:18;28.57;;;4.00;;
48975;SDS011;34791;52.752;8.346;2024-01-25T02:15:43;19.27;;;3.30;;
48975;SDS011;34791;52.752;8.346;2024-01-25T02:18:09;26.47;;;3.20;;
48975;SDS011;34791;52.752;8.346;2024-01-25T02:20:34;20.40;;;2.80;;
48975;SDS011;34791;52.752;8.346;2024-01-25T02:22:59;19.70;;;3.17;;
48975;SDS011;34791;52.752;8.346;2024-01-25T02:25:25;32.27;;;3.80;;
48975;SDS011;34791;52.752;8.346;2024-01-25T02:27:50;25.60;;;3.80;;
48975;SDS011;34791;52.752;8.346;2024-01-25T02:30:15;27.10;;;3.27;;
48975;SDS011;34791;52.752;8.346;2024-01-25T02:32:42;27.63;;;3.67;;
48975;SDS011;34791;52.752;8.346;2024-01-25T02:35:07;23.27;;;3.23;;
48975;SDS011;34791;52.752;8.346;2024-01-25T02:37:33;20.10;;;3.70;;
48975;SDS011;34791;52.752;8.346;2024-01-25T02:39:58;19.27;;;2.93;;
48975;SDS011;34791;52.752;8.346;2024-01-25T02:42:23;28.20;;;3.67;;
48975;SDS011;34791;52.752;8.346;2024-01-25T02:44:48;24.23;;;3.43;;
48975;SDS011;34791;52.752;8.346;2024-01-25T02:47:14;26.97;;;3.70;;
48975;SDS011;34791;52.752;8.346;2024-01-25T02:49:40;16.13;;;2.80;;
48975;SDS011;34791;52.752;8.346;2024-01-25T02:52:05;25.63;;;3.60;;
48975;SDS011;34791;52.752;8.346;2024-01-25T02:54:34;26.17;;;4.10;;
48975;SDS011;34791;52.752;8.346;2024-01-25T02:56:59;25.57;;;3.53;;
48975;SDS011;34791;52.752;8.346;2024-01-25T02:59:24;26.20;;;4.10;;
48975;SDS011;34791;52.752;8.346;2024-01-25T03:01:50;30.93;;;3.67;;
48975;SDS011;34791;52.752;8.346;2024-01-25T03:04:15;27.03;;;3.27;;
48975;SDS011;34791;52.752;8.346;2024-01-25T03:06:41;19.17;;;2.70;;
48975;SDS011;34791;52.752;8.346;2024-01-25T03:09:06;25.00;;;3.13;;
48975;SDS011;34791;52.752;8.346;2024-01-25T03:11:31;22.10;;;3.20;;
48975;SDS011;34791;52.752;8.346;2024-01-25T03:13:57;30.03;;;3.57;;
48975;SDS011;34791;52.752;8.346;2024-01-25T03:16:22;17.13;;;3.43;;
48975;SDS011;34791;52.752;8.346;2024-01-25T03:18:47;22.93;;;2.63;;
48975;SDS011;34791;52.752;8.346;2024-01-25T03:21:12;20.93;;;3.80;;
48975;SDS011;34791;52.752;8.346;2024-01-25T03:23:38;26.70;;;2.67;;
48975;SDS011;34791;52.752;8.346;2024-01-25T03:26:04;20.53;;;3.10;;
48975;SDS011;34791;52.752;8.346;2024-01-25T03:28:29;25.87;;;3.20;;
48975;SDS011;34791;52.752;8.346;2024-01-25T03:30:54;20.27;;;4.03;;
48975;SDS011;34791;52.752;8.346;2024-01-25T03:33:19;22.00;;;2.97;;
48975;SDS011;34791;52.752;8.346;2024-01-25T03:35:44;19.40;;;3.07;;
48975;SDS011;34791;52.752;8.346;2024-01-25T03:38:10;27.43;;;3.30;;
48975;SDS011;34791;52.752;8.346;2024-01-25T03:40:35;21.60;;;3.40;;
48975;SDS011;34791;52.752;8.346;2024-01-25T03:43:00;21.63;;;2.57;;
48975;SDS011;34791;52.752;8.346;2024-01-25T03:45:26;25.30;;;3.37;;
48975;SDS011;34791;52.752;8.346;2024-01-25T03:47:51;19.97;;;3.43;;
48975;SDS011;34791;52.752;8.346;2024-01-25T03:50:16;22.40;;;3.17;;
48975;SDS011;34791;52.752;8.346;2024-01-25T03:52:41;29.93;;;3.60;;
48975;SDS011;34791;52.752;8.346;2024-01-25T03:55:07;22.77;;;2.30;;
48975;SDS011;34791;52.752;8.346;2024-01-25T03:57:32;30.60;;;2.50;;
48975;SDS011;34791;52.752;8.346;2024-01-25T03:59:57;20.60;;;3.00;;
48975;SDS011;34791;52.752;8.346;2024-01-25T04:02:23;19.20;;;3.13;;
48975;SDS011;34791;52.752;8.346;2024-01-25T04:04:48;22.27;;;3.10;;
48975;SDS011;34791;52.752;8.346;2024-01-25T04:07:13;24.27;;;2.80;;
48975;SDS011;34791;52.752;8.346;2024-01-25T04:09:38;17.27;;;2.43;;
48975;SDS011;34791;52.752;8.346;2024-01-25T04:12:05;18.90;;;3.73;;
48975;SDS011;34791;52.752;8.346;2024-01-25T04:14:30;22.47;;;2.80;;
48975;SDS011;34791;52.752;8.346;2024-01-25T04:16:55;23.63;;;2.97;;
48975;SDS011;34791;52.752;8.346;2024-01-25T04:19:21;20.80;;;3.33;;
48975;SDS011;34791;52.752;8.346;2024-01-25T04:21:46;24.40;;;3.60;;
48975;SDS011;34791;52.752;8.346;2024-01-25T04:24:11;31.37;;;3.13;;
48975;SDS011;34791;52.752;8.346;2024-01-25T04:26:36;30.93;;;3.87;;
48975;SDS011;34791;52.752;8.346;2024-01-25T04:29:02;18.50;;;2.47;;
48975;SDS011;34791;52.752;8.346;2024-01-25T04:31:27;28.63;;;3.60;;
48975;SDS011;34791;52.752;8.346;2024-01-25T04:33:52;25.83;;;3.07;;
48975;SDS011;34791;52.752;8.346;2024-01-25T04:36:18;23.13;;;2.93;;
48975;SDS011;34791;52.752;8.346;2024-01-25T04:38:43;19.57;;;3.17;;
48975;SDS011;34791;52.752;8.346;2024-01-25T04:41:08;19.90;;;3.00;;
48975;SDS011;34791;52.752;8.346;2024-01-25T04:43:37;23.90;;;3.07;;
48975;SDS011;34791;52.752;8.346;2024-01-25T04:46:02;23.93;;;3.50;;
48975;SDS011;34791;52.752;8.346;2024-01-25T04:48:28;34.70;;;4.57;;
48975;SDS011;34791;52.752;8.346;2024-01-25T04:50:53;25.80;;;2.90;;
48975;SDS011;34791;52.752;8.346;2024-01-25T04:53:18;18.97;;;3.13;;
48975;SDS011;34791;52.752;8.346;2024-01-25T04:55:44;22.90;;;2.80;;
48975;SDS011;34791;52.752;8.346;2024-01-25T04:58:09;28.27;;;3.70;;
48975;SDS011;34791;52.752;8.346;2024-01-25T05:00:34;20.97;;;2.80;;
48975;SDS011;34791;52.752;8.346;2024-01-25T05:03:00;27.40;;;3.43;;
48975;SDS011;34791;52.752;8.346;2024-01-25T05:05:25;30.00;;;3.90;;
48975;SDS011;34791;52.752;8.346;2024-01-25T05:07:51;23.97;;;3.07;;
48975;SDS011;34791;52.752;8.346;2024-01-25T05:10:16;24.17;;;3.30;;
48975;SDS011;34791;52.752;8.346;2024-01-25T05:12:41;21.07;;;3.00;;
48975;SDS011;34791;52.752;8.346;2024-01-25T05:15:10;27.73;;;3.93;;
48975;SDS011;34791;52.752;8.346;2024-01-25T05:17:35;26.93;;;3.03;;
48975;SDS011;34791;52.752;8.346;2024-01-25T05:20:01;29.97;;;3.63;;
48975;SDS011;34791;52.752;8.346;2024-01-25T05:22:27;28.00;;;2.93;;
48975;SDS011;34791;52.752;8.346;2024-01-25T05:24:53;22.50;;;3.20;;
48975;SDS011;34791;52.752;8.346;2024-01-25T05:27:18;25.13;;;3.33;;
48975;SDS011;34791;52.752;8.346;2024-01-25T05:29:43;28.13;;;3.40;;
48975;SDS011;34791;52.752;8.346;2024-01-25T05:32:08;23.80;;;3.60;;
48975;SDS011;34791;52.752;8.346;2024-01-25T05:34:34;30.80;;;3.63;;
48975;SDS011;34791;52.752;8.346;2024-01-25T05:36:59;35.63;;;4.97;;
48975;SDS011;34791;52.752;8.346;2024-01-25T05:39:24;29.30;;;4.07;;
48975;SDS011;34791;52.752;8.346;2024-01-25T05:41:50;26.70;;;3.10;;
48975;SDS011;34791;52.752;8.346;2024-01-25T05:44:15;21.47;;;3.50;;
48975;SDS011;34791;52.752;8.346;2024-01-25T05:46:40;28.43;;;3.20;;
48975;SDS011;34791;52.752;8.346;2024-01-25T05:49:05;25.83;;;3.30;;
48975;SDS011;34791;52.752;8.346;2024-01-25T05:51:31;24.87;;;3.87;;
48975;SDS011;34791;52.752;8.346;2024-01-25T05:53:56;21.03;;;3.77;;
48975;SDS011;34791;52.752;8.346;2024-01-25T05:56:21;39.00;;;4.40;;
48975;SDS011;34791;52.752;8.346;2024-01-25T05:58:47;26.50;;;3.43;;
48975;SDS011;34791;52.752;8.346;2024-01-25T06:01:12;29.00;;;4.13;;
48975;SDS011;34791;52.752;8.346;2024-01-25T06:03:37;35.97;;;3.77;;
48975;SDS011;34791;52.752;8.346;2024-01-25T06:06:02;27.30;;;3.73;;
48975;SDS011;34791;52.752;8.346;2024-01-25T06:08:28;25.27;;;4.73;;
48975;SDS011;34791;52.752;8.346;2024-01-25T06:10:53;31.73;;;4.17;;
48975;SDS011;34791;52.752;8.346;2024-01-25T06:13:18;31.67;;;5.20;;
48975;SDS011;34791;52.752;8.346;2024-01-25T06:15:43;35.47;;;4.23;;
48975;SDS011;34791;52.752;8.346;2024-01-25T06:18:09;29.67;;;4.10;;
48975;SDS011;34791;52.752;8.346;2024-01-25T06:20:34;38.67;;;5.03;;
48975;SDS011;34791;52.752;8.346;2024-01-25T06:22:59;39.07;;;5.83;;
48975;SDS011;34791;52.752;8.346;2024-01-25T06:25:24;33.33;;;4.60;;
48975;SDS011;34791;52.752;8.346;2024-01-25T06:27:51;35.17;;;3.83;;
48975;SDS011;34791;52.752;8.346;2024-01-25T06:30:17;32.30;;;3.73;;
48975;SDS011;34791;52.752;8.346;2024-01-25T06:32:42;20.27;;;3.17;;
48975;SDS011;34791;52.752;8.346;2024-01-25T06:35:07;30.37;;;4.03;;
48975;SDS011;34791;52.752;8.346;2024-01-25T06:37:33;37.40;;;4.10;;
48975;SDS011;34791;52.752;8.346;2024-01-25T06:39:58;33.77;;;4.47;;
48975;SDS011;34791;52.752;8.346;2024-01-25T06:42:23;31.10;;;3.63;;
48975;SDS011;34791;52.752;8.346;2024-01-25T06:44:49;28.23;;;3.40;;
48975;SDS011;34791;52.752;8.346;2024-01-25T06:47:14;32.37;;;4.00;;
48975;SDS011;34791;52.752;8.346;2024-01-25T06:49:39;30.70;;;4.10;;
48975;SDS011;34791;52.752;8.346;2024-01-25T06:52:04;24.63;;;3.13;;
48975;SDS011;34791;52.752;8.346;2024-01-25T06:54:30;37.00;;;3.90;;
48975;SDS011;34791;52.752;8.346;2024-01-25T06:56:56;29.47;;;4.30;;
48975;SDS011;34791;52.752;8.346;2024-01-25T06:59:21;22.67;;;3.47;;
48975;SDS011;34791;52.752;8.346;2024-01-25T07:01:46;30.63;;;4.23;;
48975;SDS011;34791;52.752;8.346;2024-01-25T07:04:12;32.10;;;4.10;;
48975;SDS011;34791;52.752;8.346;2024-01-25T07:06:37;33.13;;;5.70;;
48975;SDS011;34791;52.752;8.346;2024-01-25T07:09:02;37.23;;;4.43;;
48975;SDS011;34791;52.752;8.346;2024-01-25T07:11:28;17.87;;;3.07;;
48975;SDS011;34791;52.752;8.346;2024-01-25T07:13:54;27.17;;;4.20;;
48975;SDS011;34791;52.752;8.346;2024-01-25T07:16:19;24.73;;;4.10;;
48975;SDS011;34791;52.752;8.346;2024-01-25T07:18:44;35.13;;;4.90;;
48975;SDS011;34791;52.752;8.346;2024-01-25T07:21:10;31.07;;;4.33;;
48975;SDS011;34791;52.752;8.346;2024-01-25T07:23:35;24.50;;;3.43;;
48975;SDS011;34791;52.752;8.346;2024-01-25T07:26:01;31.57;;;4.00;;
48975;SDS011;34791;52.752;8.346;2024-01-25T07:28:26;36.70;;;4.67;;
48975;SDS011;34791;52.752;8.346;2024-01-25T07:30:51;40.73;;;5.33;;
48975;SDS011;34791;52.752;8.346;2024-01-25T07:33:16;44.33;;;5.47;;
48975;SDS011;34791;52.752;8.346;2024-01-25T07:35:42;35.70;;;4.67;;
48975;SDS011;34791;52.752;8.346;2024-01-25T07:38:19;35.87;;;4.33;;
48975;SDS011;34791;52.752;8.346;2024-01-25T07:40:45;33.73;;;4.70;;
48975;SDS011;34791;52.752;8.346;2024-01-25T07:43:10;32.87;;;4.43;;
48975;SDS011;34791;52.752;8.346;2024-01-25T07:45:35;31.50;;;4.07;;
48975;SDS011;34791;52.752;8.346;2024-01-25T07:48:01;24.37;;;3.37;;
48975;SDS011;34791;52.752;8.346;2024-01-25T07:50:26;21.60;;;4.37;;
48975;SDS011;34791;52.752;8.346;2024-01-25T07:52:51;31.37;;;3.93;;
48975;SDS011;34791;52.752;8.346;2024-01-25T07:55:17;35.67;;;4.30;;
48975;SDS011;34791;52.752;8.346;2024-01-25T07:57:42;33.90;;;4.10;;
48975;SDS011;34791;52.752;8.346;2024-01-25T08:00:08;36.73;;;5.00;;
48975;SDS011;34791;52.752;8.346;2024-01-25T08:02:34;21.03;;;3.93;;
48975;SDS011;34791;52.752;8.346;2024-01-25T08:04:59;36.37;;;4.47;;
48975;SDS011;34791;52.752;8.346;2024-01-25T08:07:24;29.20;;;3.93;;
48975;SDS011;34791;52.752;8.346;2024-01-25T08:09:49;31.37;;;4.13;;
48975;SDS011;34791;52.752;8.346;2024-01-25T08:12:17;34.73;;;4.87;;
48975;SDS011;34791;52.752;8.346;2024-01-25T08:14:43;37.43;;;4.67;;
48975;SDS011;34791;52.752;8.346;2024-01-25T08:17:09;28.27;;;3.67;;
48975;SDS011;34791;52.752;8.346;2024-01-25T08:19:34;26.27;;;4.30;;
48975;SDS011;34791;52.752;8.346;2024-01-25T08:22:00;38.33;;;4.70;;
48975;SDS011;34791;52.752;8.346;2024-01-25T08:24:25;36.23;;;4.27;;
48975;SDS011;34791;52.752;8.346;2024-01-25T08:26:50;28.90;;;5.50;;
48975;SDS011;34791;52.752;8.346;2024-01-25T08:29:15;35.47;;;4.73;;
48975;SDS011;34791;52.752;8.346;2024-01-25T08:31:41;33.37;;;4.27;;
48975;SDS011;34791;52.752;8.346;2024-01-25T08:34:06;28.77;;;5.60;;
48975;SDS011;34791;52.752;8.346;2024-01-25T08:36:31;32.97;;;4.70;;
48975;SDS011;34791;52.752;8.346;2024-01-25T08:38:56;30.07;;;5.00;;
48975;SDS011;34791;52.752;8.346;2024-01-25T08:41:22;36.30;;;5.50;;
48975;SDS011;34791;52.752;8.346;2024-01-25T08:43:47;30.80;;;5.40;;
48975;SDS011;34791;52.752;8.346;2024-01-25T08:46:13;35.13;;;6.93;;
48975;SDS011;34791;52.752;8.346;2024-01-25T08:48:39;42.47;;;5.87;;
48975;SDS011;34791;52.752;8.346;2024-01-25T08:51:04;31.43;;;5.23;;
48975;SDS011;34791;52.752;8.346;2024-01-25T08:53:29;33.80;;;5.63;;
48975;SDS011;34791;52.752;8.346;2024-01-25T08:55:55;29.00;;;6.10;;
48975;SDS011;34791;52.752;8.346;2024-01-25T08:58:20;31.37;;;5.40;;
48975;SDS011;34791;52.752;8.346;2024-01-25T09:00:46;32.07;;;4.73;;
48975;SDS011;34791;52.752;8.346;2024-01-25T09:03:11;28.60;;;4.93;;
48975;SDS011;34791;52.752;8.346;2024-01-25T09:05:37;38.33;;;4.63;;
48975;SDS011;34791;52.752;8.346;2024-01-25T09:08:05;24.30;;;3.90;;
48975;SDS011;34791;52.752;8.346;2024-01-25T09:10:31;29.73;;;4.93;;
48975;SDS011;34791;52.752;8.346;2024-01-25T09:12:56;24.77;;;3.97;;
48975;SDS011;34791;52.752;8.346;2024-01-25T09:15:21;23.20;;;4.43;;
48975;SDS011;34791;52.752;8.346;2024-01-25T09:17:47;26.87;;;4.23;;
48975;SDS011;34791;52.752;8.346;2024-01-25T09:20:12;29.87;;;5.33;;
48975;SDS011;34791;52.752;8.346;2024-01-25T09:22:37;30.20;;;4.50;;
48975;SDS011;34791;52.752;8.346;2024-01-25T09:25:03;24.10;;;4.00;;
48975;SDS011;34791;52.752;8.346;2024-01-25T09:27:28;25.87;;;4.50;;
48975;SDS011;34791;52.752;8.346;2024-01-25T09:29:53;35.87;;;4.77;;
48975;SDS011;34791;52.752;8.346;2024-01-25T09:32:19;38.30;;;4.90;;
48975;SDS011;34791;52.752;8.346;2024-01-25T09:34:45;33.67;;;4.30;;
48975;SDS011;34791;52.752;8.346;2024-01-25T09:37:11;35.20;;;4.90;;
48975;SDS011;34791;52.752;8.346;2024-01-25T09:39:36;33.63;;;5.17;;
48975;SDS011;34791;52.752;8.346;2024-01-25T09:42:02;39.77;;;5.67;;
48975;SDS011;34791;52.752;8.346;2024-01-25T09:44:28;26.40;;;4.03;;
48975;SDS011;34791;52.752;8.346;2024-01-25T09:46:53;23.20;;;5.00;;
48975;SDS011;34791;52.752;8.346;2024-01-25T09:49:18;26.97;;;4.57;;
48975;SDS011;34791;52.752;8.346;2024-01-25T09:51:44;27.67;;;4.33;;
48975;SDS011;34791;52.752;8.346;2024-01-25T09:54:09;33.93;;;5.13;;
48975;SDS011;34791;52.752;8.346;2024-01-25T09:56:35;34.77;;;4.50;;
48975;SDS011;34791;52.752;8.346;2024-01-25T09:59:01;25.90;;;5.03;;
48975;SDS011;34791;52.752;8.346;2024-01-25T10:01:26;32.27;;;4.40;;
48975;SDS011;34791;52.752;8.346;2024-01-25T10:03:51;28.67;;;4.67;;
48975;SDS011;34791;52.752;8.346;2024-01-25T10:06:17;33.83;;;4.63;;
48975;SDS011;34791;52.752;8.346;2024-01-25T10:08:42;32.30;;;5.03;;
48975;SDS011;34791;52.752;8.346;2024-01-25T10:11:08;25.90;;;4.63;;
48975;SDS011;34791;52.752;8.346;2024-01-25T10:13:40;24.67;;;4.90;;
48975;SDS011;34791;52.752;8.346;2024-01-25T10:16:05;26.37;;;4.33;;
48975;SDS011;34791;52.752;8.346;2024-01-25T10:18:30;34.83;;;5.43;;
48975;SDS011;34791;52.752;8.346;2024-01-25T10:20:56;29.83;;;4.60;;
48975;SDS011;34791;52.752;8.346;2024-01-25T10:23:21;17.53;;;3.60;;
48975;SDS011;34791;52.752;8.346;2024-01-25T10:25:47;32.90;;;5.30;;
48975;SDS011;34791;52.752;8.346;2024-01-25T10:28:12;28.17;;;4.87;;
48975;SDS011;34791;52.752;8.346;2024-01-25T10:30:38;37.50;;;5.20;;
48975;SDS011;34791;52.752;8.346;2024-01-25T10:33:03;33.97;;;4.77;;
48975;SDS011;34791;52.752;8.346;2024-01-25T10:35:32;33.37;;;4.77;;
48975;SDS011;34791;52.752;8.346;2024-01-25T10:37:57;29.20;;;5.47;;
48975;SDS011;34791;52.752;8.346;2024-01-25T10:40:23;25.40;;;4.57;;
48975;SDS011;34791;52.752;8.346;2024-01-25T10:42:48;33.57;;;4.80;;
48975;SDS011;34791;52.752;8.346;2024-01-25T10:45:14;35.13;;;5.33;;
48975;SDS011;34791;52.752;8.346;2024-01-25T10:47:39;27.47;;;4.47;;
48975;SDS011;34791;52.752;8.346;2024-01-25T10:50:06;29.63;;;5.27;;
48975;SDS011;34791;52.752;8.346;2024-01-25T10:52:34;21.83;;;4.70;;
48975;SDS011;34791;52.752;8.346;2024-01-25T10:54:59;30.63;;;5.40;;
48975;SDS011;34791;52.752;8.346;2024-01-25T10:57:25;27.03;;;4.50;;
48975;SDS011;34791;52.752;8.346;2024-01-25T10:59:51;30.60;;;4.90;;
48975;SDS011;34791;52.752;8.346;2024-01-25T11:02:20;33.13;;;5.10;;
48975;SDS011;34791;52.752;8.346;2024-01-25T11:04:54;25.27;;;4.27;;
48975;SDS011;34791;52.752;8.346;2024-01-25T11:07:20;23.30;;;5.13;;
48975;SDS011;34791;52.752;8.346;2024-01-25T11:09:45;27.90;;;5.23;;
48975;SDS011;34791;52.752;8.346;2024-01-25T11:12:13;33.50;;;5.23;;
48975;SDS011;34791;52.752;8.346;2024-01-25T11:14:41;25.50;;;4.30;;
48975;SDS011;34791;52.752;8.346;2024-01-25T11:17:19;25.53;;;3.90;;
48975;SDS011;34791;52.752;8.346;2024-01-25T11:19:45;28.67;;;5.37;;
48975;SDS011;34791;52.752;8.346;2024-01-25T11:22:10;28.67;;;4.90;;
48975;SDS011;34791;52.752;8.346;2024-01-25T11:24:37;30.60;;;4.63;;
48975;SDS011;34791;52.752;8.346;2024-01-25T11:27:03;27.70;;;4.87;;
48975;SDS011;34791;52.752;8.346;2024-01-25T11:29:29;29.83;;;4.97;;
48975;SDS011;34791;52.752;8.346;2024-01-25T11:31:55;24.47;;;4.47;;
48975;SDS011;34791;52.752;8.346;2024-01-25T11:34:22;28.17;;;4.70;;
48975;SDS011;34791;52.752;8.346;2024-01-25T11:36:48;28.70;;;4.80;;
48975;SDS011;34791;52.752;8.346;2024-01-25T11:39:13;29.57;;;5.40;;
48975;SDS011;34791;52.752;8.346;2024-01-25T11:41:40;29.77;;;4.50;;
48975;SDS011;34791;52.752;8.346;2024-01-25T11:44:06;22.73;;;4.73;;
48975;SDS011;34791;52.752;8.346;2024-01-25T11:46:32;22.37;;;4.40;;
48975;SDS011;34791;52.752;8.346;2024-01-25T11:49:00;26.13;;;4.90;;
48975;SDS011;34791;52.752;8.346;2024-01-25T11:51:25;31.50;;;4.87;;
48975;SDS011;34791;52.752;8.346;2024-01-25T11:53:50;18.73;;;4.40;;
48975;SDS011;34791;52.752;8.346;2024-01-25T11:56:23;27.70;;;5.47;;
48975;SDS011;34791;52.752;8.346;2024-01-25T11:58:49;29.17;;;5.23;;
48975;SDS011;34791;52.752;8.346;2024-01-25T12:01:15;24.50;;;5.70;;
48975;SDS011;34791;52.752;8.346;2024-01-25T12:03:40;26.40;;;4.73;;
48975;SDS011;34791;52.752;8.346;2024-01-25T12:06:06;30.27;;;5.00;;
48975;SDS011;34791;52.752;8.346;2024-01-25T12:08:33;29.07;;;5.37;;
48975;SDS011;34791;52.752;8.346;2024-01-25T12:11:05;31.50;;;5.27;;
48975;SDS011;34791;52.752;8.346;2024-01-25T12:13:34;27.57;;;5.30;;
48975;SDS011;34791;52.752;8.346;2024-01-25T12:15:59;26.57;;;5.07;;
48975;SDS011;34791;52.752;8.346;2024-01-25T12:18:26;26.07;;;5.37;;
48975;SDS011;34791;52.752;8.346;2024-01-25T12:20:51;32.07;;;5.70;;
48975;SDS011;34791;52.752;8.346;2024-01-25T12:23:16;26.70;;;4.97;;
48975;SDS011;34791;52.752;8.346;2024-01-25T12:25:42;27.00;;;5.20;;
48975;SDS011;34791;52.752;8.346;2024-01-25T12:28:07;28.53;;;4.63;;
48975;SDS011;34791;52.752;8.346;2024-01-25T12:30:32;22.53;;;4.87;;
48975;SDS011;34791;52.752;8.346;2024-01-25T12:32:58;28.60;;;4.40;;
48975;SDS011;34791;52.752;8.346;2024-01-25T12:35:23;32.40;;;5.67;;
48975;SDS011;34791;52.752;8.346;2024-01-25T12:37:48;29.73;;;4.60;;
48975;SDS011;34791;52.752;8.346;2024-01-25T12:40:13;25.87;;;4.70;;
48975;SDS011;34791;52.752;8.346;2024-01-25T12:42:39;29.27;;;5.10;;
48975;SDS011;34791;52.752;8.346;2024-01-25T12:45:04;24.20;;;4.47;;
48975;SDS011;34791;52.752;8.346;2024-01-25T12:47:29;24.10;;;5.33;;
48975;SDS011;34791;52.752;8.346;2024-01-25T12:49:55;26.40;;;4.80;;
48975;SDS011;34791;52.752;8.346;2024-01-25T12:52:20;20.23;;;3.57;;
48975;SDS011;34791;52.752;8.346;2024-01-25T12:54:45;20.57;;;3.87;;
48975;SDS011;34791;52.752;8.346;2024-01-25T12:57:11;30.47;;;4.87;;
48975;SDS011;34791;52.752;8.346;2024-01-25T12:59:36;21.30;;;4.53;;
48975;SDS011;34791;52.752;8.346;2024-01-25T13:02:03;26.13;;;4.13;;
48975;SDS011;34791;52.752;8.346;2024-01-25T13:04:28;26.77;;;4.30;;
48975;SDS011;34791;52.752;8.346;2024-01-25T13:06:54;23.13;;;4.60;;
48975;SDS011;34791;52.752;8.346;2024-01-25T13:09:20;23.80;;;4.30;;
48975;SDS011;34791;52.752;8.346;2024-01-25T13:11:46;25.43;;;4.60;;
48975;SDS011;34791;52.752;8.346;2024-01-25T13:14:11;30.47;;;5.30;;
48975;SDS011;34791;52.752;8.346;2024-01-25T13:16:36;22.63;;;4.33;;
48975;SDS011;34791;52.752;8.346;2024-01-25T13:19:02;24.43;;;4.23;;
48975;SDS011;34791;52.752;8.346;2024-01-25T13:21:27;31.93;;;4.03;;
48975;SDS011;34791;52.752;8.346;2024-01-25T13:23:52;20.57;;;4.10;;
48975;SDS011;34791;52.752;8.346;2024-01-25T13:26:18;17.50;;;2.80;;
48975;SDS011;34791;52.752;8.346;2024-01-25T13:28:43;23.87;;;4.43;;
48975;SDS011;34791;52.752;8.346;2024-01-25T13:31:08;27.47;;;4.43;;
48975;SDS011;34791;52.752;8.346;2024-01-25T13:33:34;18.73;;;3.23;;
48975;SDS011;34791;52.752;8.346;2024-01-25T13:35:59;23.47;;;4.47;;
48975;SDS011;34791;52.752;8.346;2024-01-25T13:38:24;23.00;;;4.13;;
48975;SDS011;34791;52.752;8.346;2024-01-25T13:40:50;21.50;;;5.17;;
48975;SDS011;34791;52.752;8.346;2024-01-25T13:43:15;31.93;;;4.93;;
48975;SDS011;34791;52.752;8.346;2024-01-25T13:45:41;28.30;;;4.00;;
48975;SDS011;34791;52.752;8.346;2024-01-25T13:48:06;23.10;;;4.23;;
48975;SDS011;34791;52.752;8.346;2024-01-25T13:50:31;20.17;;;3.27;;
48975;SDS011;34791;52.752;8.346;2024-01-25T13:52:57;29.57;;;6.17;;
48975;SDS011;34791;52.752;8.346;2024-01-25T13:55:22;30.90;;;5.57;;
48975;SDS011;34791;52.752;8.346;2024-01-25T13:57:47;31.80;;;5.20;;
48975;SDS011;34791;52.752;8.346;2024-01-25T14:00:13;22.47;;;4.73;;
48975;SDS011;34791;52.752;8.346;2024-01-25T14:02:39;21.43;;;4.33;;
48975;SDS011;34791;52.752;8.346;2024-01-25T14:05:07;23.87;;;4.00;;
48975;SDS011;34791;52.752;8.346;2024-01-25T14:07:32;21.67;;;4.10;;
48975;SDS011;34791;52.752;8.346;2024-01-25T14:09:58;24.13;;;4.73;;
48975;SDS011;34791;52.752;8.346;2024-01-25T14:12:23;15.50;;;2.50;;
48975;SDS011;34791;52.752;8.346;2024-01-25T14:14:48;15.90;;;3.00;;
48975;SDS011;34791;52.752;8.346;2024-01-25T14:17:14;23.97;;;3.87;;
48975;SDS011;34791;52.752;8.346;2024-01-25T14:19:39;19.63;;;3.70;;
48975;SDS011;34791;52.752;8.346;2024-01-25T14:22:04;27.80;;;4.57;;
48975;SDS011;34791;52.752;8.346;2024-01-25T14:24:29;26.07;;;4.47;;